createdAt,value
2016-08-29T00:00:46.836Z,0
2016-08-29T00:01:46.808Z,0
2016-08-29T00:02:46.805Z,0
2016-08-29T00:03:46.828Z,0
2016-08-29T00:04:46.824Z,0
2016-08-29T00:05:46.817Z,0
2016-08-29T00:06:46.840Z,0
2016-08-29T00:07:46.806Z,0
2016-08-29T00:08:46.825Z,0
2016-08-29T00:09:46.830Z,0
2016-08-29T00:10:46.805Z,0
2016-08-29T00:11:46.819Z,0
2016-08-29T00:12:46.808Z,0
2016-08-29T00:13:46.820Z,0
2016-08-29T00:14:47.534Z,0
2016-08-29T00:15:46.831Z,0
2016-08-29T00:16:46.819Z,0
2016-08-29T00:17:46.815Z,0
2016-08-29T00:18:46.854Z,0
2016-08-29T00:19:46.826Z,0
2016-08-29T00:20:46.820Z,0
2016-08-29T00:21:46.821Z,0
2016-08-29T00:22:46.843Z,0
2016-08-29T00:23:46.808Z,0
2016-08-29T00:24:46.835Z,0
2016-08-29T00:25:46.819Z,0
2016-08-29T00:26:46.844Z,0
2016-08-29T00:27:46.834Z,0
2016-08-29T00:28:46.827Z,0
2016-08-29T00:29:46.810Z,0
2016-08-29T00:30:46.808Z,0
2016-08-29T00:31:46.805Z,0
2016-08-29T00:33:03.038Z,0
2016-08-29T00:33:46.975Z,0
2016-08-29T00:34:48.209Z,0
2016-08-29T00:35:47.915Z,0
2016-08-29T00:36:47.729Z,0
2016-08-29T00:38:50.585Z,0
2016-08-29T00:39:48.273Z,0
2016-08-29T00:40:48.964Z,0
2016-08-29T00:41:49.126Z,0
2016-08-29T00:42:47.231Z,0
2016-08-29T00:43:48.717Z,0
2016-08-29T00:44:47.866Z,0
2016-08-29T00:46:01.833Z,0
2016-08-29T00:46:49.099Z,0
2016-08-29T00:47:48.588Z,0
2016-08-29T00:48:49.812Z,0
2016-08-29T00:49:47.618Z,0
2016-08-29T00:50:47.215Z,0
2016-08-29T00:51:46.829Z,0
2016-08-29T00:52:46.799Z,0
2016-08-29T00:53:46.859Z,0
2016-08-29T00:54:46.800Z,0
2016-08-29T00:55:46.830Z,0
2016-08-29T00:56:46.808Z,0
2016-08-29T00:57:47.486Z,0
2016-08-29T00:58:46.814Z,0
2016-08-29T00:59:46.833Z,0
2016-08-29T01:00:46.828Z,0
2016-08-29T01:01:46.810Z,0
2016-08-29T01:02:46.814Z,0
2016-08-29T01:03:46.803Z,0
2016-08-29T01:04:46.833Z,0
2016-08-29T01:05:46.808Z,0
2016-08-29T01:06:46.797Z,0
2016-08-29T01:07:47.521Z,0
2016-08-29T01:08:46.793Z,0
2016-08-29T01:09:46.841Z,0
2016-08-29T01:10:47.249Z,0
2016-08-29T01:11:46.834Z,0
2016-08-29T01:12:46.794Z,0
2016-08-29T01:13:46.796Z,0
2016-08-29T01:14:46.808Z,0
2016-08-29T01:15:46.833Z,0
2016-08-29T01:16:46.808Z,0
2016-08-29T01:17:46.814Z,0
2016-08-29T01:18:46.799Z,0
2016-08-29T01:19:46.835Z,0
2016-08-29T01:20:46.797Z,0
2016-08-29T01:21:46.825Z,0
2016-08-29T01:22:46.800Z,0
2016-08-29T01:23:46.802Z,0
2016-08-29T01:24:46.813Z,0
2016-08-29T01:25:46.791Z,0
2016-08-29T01:26:47.513Z,0
2016-08-29T01:27:46.826Z,0
2016-08-29T01:28:46.800Z,0
2016-08-29T01:29:46.805Z,0
2016-08-29T01:30:47.504Z,0
2016-08-29T01:31:46.821Z,0
2016-08-29T01:32:46.801Z,0
2016-08-29T01:33:46.828Z,0
2016-08-29T01:34:46.792Z,0
2016-08-29T01:35:46.827Z,0
2016-08-29T01:36:46.813Z,0
2016-08-29T01:37:46.812Z,0
2016-08-29T01:38:46.822Z,0
2016-08-29T01:39:46.807Z,0
2016-08-29T01:40:46.797Z,0
2016-08-29T01:41:46.793Z,0
2016-08-29T01:42:46.799Z,0
2016-08-29T01:43:46.803Z,0
2016-08-29T01:44:46.800Z,0
2016-08-29T01:45:46.797Z,0
2016-08-29T01:46:47.511Z,0
2016-08-29T01:47:47.495Z,0
2016-08-29T01:48:48.228Z,0
2016-08-29T01:49:47.487Z,0
2016-08-29T01:50:48.509Z,0
2016-08-29T01:51:47.611Z,0
2016-08-29T01:52:48.418Z,0
2016-08-29T01:53:47.178Z,0
2016-08-29T01:54:46.794Z,0
2016-08-29T01:55:48.975Z,0
2016-08-29T01:56:48.719Z,0
2016-08-29T01:57:50.210Z,0
2016-08-29T01:58:48.202Z,0
2016-08-29T01:59:48.476Z,0
2016-08-29T02:01:48.618Z,0
2016-08-29T02:02:48.092Z,0
2016-08-29T02:03:46.980Z,0
2016-08-29T02:04:52.197Z,0
2016-08-29T02:05:48.292Z,0
2016-08-29T02:06:48.230Z,0
2016-08-29T02:07:48.601Z,0
2016-08-29T02:08:46.781Z,0
2016-08-29T02:09:48.371Z,0
2016-08-29T02:10:47.035Z,0
2016-08-29T02:11:46.800Z,0
2016-08-29T02:12:46.783Z,0
2016-08-29T02:13:46.805Z,0
2016-08-29T02:14:46.787Z,0
2016-08-29T02:15:46.793Z,0
2016-08-29T02:16:46.777Z,0
2016-08-29T02:17:46.782Z,0
2016-08-29T02:18:46.780Z,0
2016-08-29T02:19:46.774Z,0
2016-08-29T02:20:46.780Z,0
2016-08-29T02:21:46.796Z,0
2016-08-29T02:22:46.799Z,0
2016-08-29T02:23:46.805Z,0
2016-08-29T02:24:46.781Z,0
2016-08-29T02:25:46.791Z,0
2016-08-29T02:26:46.770Z,0
2016-08-29T02:27:46.814Z,0
2016-08-29T02:28:46.789Z,0
2016-08-29T02:29:46.808Z,0
2016-08-29T02:30:46.796Z,0
2016-08-29T02:31:46.787Z,0
2016-08-29T02:32:46.770Z,0
2016-08-29T02:33:46.783Z,0
2016-08-29T02:34:46.793Z,0
2016-08-29T02:35:46.796Z,0
2016-08-29T02:36:46.776Z,0
2016-08-29T02:37:46.777Z,0
2016-08-29T02:38:46.795Z,0
2016-08-29T02:39:47.464Z,0
2016-08-29T02:40:46.778Z,0
2016-08-29T02:41:46.763Z,0
2016-08-29T02:42:46.815Z,0
2016-08-29T02:43:46.767Z,0
2016-08-29T02:44:46.789Z,0
2016-08-29T02:45:46.775Z,0
2016-08-29T02:46:46.784Z,0
2016-08-29T02:47:46.773Z,0
2016-08-29T02:48:46.761Z,0
2016-08-29T02:49:46.770Z,0
2016-08-29T02:50:46.778Z,0
2016-08-29T02:51:46.827Z,0
2016-08-29T02:52:46.801Z,0
2016-08-29T02:53:46.779Z,0
2016-08-29T02:54:46.776Z,0
2016-08-29T02:55:46.777Z,0
2016-08-29T02:56:46.772Z,0
2016-08-29T02:57:46.786Z,0
2016-08-29T02:58:46.777Z,0
2016-08-29T02:59:46.757Z,0
2016-08-29T03:00:46.797Z,0
2016-08-29T03:01:46.774Z,0
2016-08-29T03:02:46.757Z,0
2016-08-29T03:03:46.770Z,0
2016-08-29T03:04:46.783Z,0
2016-08-29T03:05:46.808Z,0
2016-08-29T03:06:46.785Z,0
2016-08-29T03:07:46.780Z,0
2016-08-29T03:08:47.668Z,0
2016-08-29T03:09:48.373Z,0
2016-08-29T03:10:49.369Z,0
2016-08-29T03:11:47.487Z,0
2016-08-29T03:12:47.744Z,0
2016-08-29T03:13:48.681Z,0
2016-08-29T03:15:47.591Z,0
2016-08-29T03:16:48.307Z,0
2016-08-29T03:18:48.629Z,0
2016-08-29T03:19:47.842Z,0
2016-08-29T03:20:47.220Z,0
2016-08-29T03:22:49.524Z,0
2016-08-29T03:23:48.414Z,0
2016-08-29T03:24:50.737Z,0
2016-08-29T03:25:49.369Z,0
2016-08-29T03:26:47.012Z,0
2016-08-29T03:27:47.098Z,0
2016-08-29T03:28:46.769Z,0
2016-08-29T03:29:46.948Z,0
2016-08-29T03:30:46.803Z,0
2016-08-29T03:31:46.749Z,0
2016-08-29T03:32:46.762Z,0
2016-08-29T03:33:46.756Z,0
2016-08-29T03:34:46.795Z,0
2016-08-29T03:35:46.744Z,0
2016-08-29T03:36:46.788Z,0
2016-08-29T03:37:46.761Z,0
2016-08-29T03:38:46.754Z,0
2016-08-29T03:39:46.755Z,0
2016-08-29T03:40:46.748Z,0
2016-08-29T03:41:46.750Z,0
2016-08-29T03:42:46.757Z,0
2016-08-29T03:43:46.759Z,0
2016-08-29T03:44:46.754Z,0
2016-08-29T03:45:46.746Z,0
2016-08-29T03:46:46.746Z,0
2016-08-29T03:47:46.741Z,0
2016-08-29T03:48:46.773Z,0
2016-08-29T03:49:46.741Z,0
2016-08-29T03:50:46.758Z,0
2016-08-29T03:51:47.450Z,0
2016-08-29T03:52:46.755Z,0
2016-08-29T03:53:46.737Z,0
2016-08-29T03:54:46.751Z,0
2016-08-29T03:55:46.752Z,0
2016-08-29T03:56:46.759Z,0
2016-08-29T03:57:46.752Z,0
2016-08-29T03:58:46.738Z,0
2016-08-29T03:59:46.737Z,0
2016-08-29T04:00:46.735Z,0
2016-08-29T04:01:46.740Z,0
2016-08-29T04:02:46.750Z,0
2016-08-29T04:03:46.756Z,0
2016-08-29T04:04:46.751Z,0
2016-08-29T04:05:46.724Z,0
2016-08-29T04:06:46.750Z,0
2016-08-29T04:07:46.736Z,0
2016-08-29T04:08:46.723Z,5
2016-08-29T04:09:46.741Z,5
2016-08-29T04:10:46.932Z,5
2016-08-29T04:11:46.744Z,5
2016-08-29T04:12:46.751Z,5
2016-08-29T04:13:46.729Z,10
2016-08-29T04:14:46.734Z,10
2016-08-29T04:15:46.731Z,10
2016-08-29T04:16:46.738Z,10
2016-08-29T04:17:46.735Z,15
2016-08-29T04:18:46.741Z,15
2016-08-29T04:19:46.731Z,15
2016-08-29T04:20:46.721Z,20
2016-08-29T04:21:46.726Z,20
2016-08-29T04:22:46.755Z,20
2016-08-29T04:23:46.750Z,20
2016-08-29T04:24:46.724Z,20
2016-08-29T04:25:46.730Z,25
2016-08-29T04:26:49.384Z,25
2016-08-29T04:27:46.970Z,30
2016-08-29T04:28:47.683Z,35
2016-08-29T04:29:46.821Z,35
2016-08-29T04:30:47.997Z,35
2016-08-29T04:32:49.881Z,40
2016-08-29T04:33:50.684Z,40
2016-08-29T04:34:49.623Z,40
2016-08-29T04:35:48.426Z,45
2016-08-29T04:37:02.959Z,45
2016-08-29T04:37:47.457Z,45
2016-08-29T04:39:01.635Z,50
2016-08-29T04:39:48.119Z,50
2016-08-29T04:40:48.230Z,55
2016-08-29T04:42:48.970Z,65
2016-08-29T04:43:48.237Z,70
2016-08-29T04:44:47.465Z,80
2016-08-29T04:45:47.070Z,80
2016-08-29T04:46:46.708Z,80
2016-08-29T04:47:46.723Z,75
2016-08-29T04:48:46.715Z,75
2016-08-29T04:49:46.703Z,75
2016-08-29T04:50:46.706Z,80
2016-08-29T04:51:46.723Z,75
2016-08-29T04:52:46.710Z,80
2016-08-29T04:53:46.744Z,90
2016-08-29T04:54:46.712Z,85
2016-08-29T04:55:46.703Z,85
2016-08-29T04:56:46.726Z,85
2016-08-29T04:57:46.704Z,85
2016-08-29T04:58:46.735Z,90
2016-08-29T04:59:46.705Z,90
2016-08-29T05:00:46.724Z,85
2016-08-29T05:01:46.707Z,80
2016-08-29T05:02:46.719Z,85
2016-08-29T05:03:46.706Z,90
2016-08-29T05:04:46.705Z,95
2016-08-29T05:05:46.695Z,95
2016-08-29T05:06:46.690Z,100
2016-08-29T05:07:46.718Z,105
2016-08-29T05:08:46.712Z,110
2016-08-29T05:09:46.736Z,105
2016-08-29T05:10:46.721Z,95
2016-08-29T05:11:46.716Z,90
2016-08-29T05:12:46.712Z,95
2016-08-29T05:13:46.723Z,105
2016-08-29T05:14:46.697Z,110
2016-08-29T05:15:46.743Z,120
2016-08-29T05:16:46.709Z,125
2016-08-29T05:17:46.741Z,130
2016-08-29T05:18:46.700Z,145
2016-08-29T05:19:46.700Z,160
2016-08-29T05:20:46.722Z,170
2016-08-29T05:21:46.737Z,175
2016-08-29T05:22:46.693Z,180
2016-08-29T05:23:46.703Z,190
2016-08-29T05:24:46.722Z,200
2016-08-29T05:25:46.712Z,205
2016-08-29T05:26:46.696Z,210
2016-08-29T05:27:46.737Z,210
2016-08-29T05:28:46.698Z,215
2016-08-29T05:29:46.706Z,220
2016-08-29T05:30:46.701Z,230
2016-08-29T05:31:46.719Z,225
2016-08-29T05:32:46.694Z,230
2016-08-29T05:33:46.729Z,240
2016-08-29T05:34:46.702Z,255
2016-08-29T05:35:46.708Z,255
2016-08-29T05:36:46.724Z,370
2016-08-29T05:37:46.709Z,370
2016-08-29T05:38:46.718Z,250
2016-08-29T05:39:46.701Z,345
2016-08-29T05:40:47.425Z,360
2016-08-29T05:41:46.711Z,380
2016-08-29T05:42:46.737Z,325
2016-08-29T05:43:46.712Z,255
2016-08-29T05:44:46.734Z,375
2016-08-29T05:45:47.407Z,255
2016-08-29T05:46:46.984Z,230
2016-08-29T05:47:46.812Z,200
2016-08-29T05:48:47.092Z,200
2016-08-29T05:49:49.577Z,250
2016-08-29T05:50:49.522Z,195
2016-08-29T05:51:50.560Z,295
2016-08-29T05:52:50.003Z,270
2016-08-29T05:53:48.200Z,305
2016-08-29T05:55:03.364Z,390
2016-08-29T05:55:47.095Z,270
2016-08-29T05:56:47.391Z,265
2016-08-29T05:57:47.292Z,290
2016-08-29T06:00:49.499Z,355
2016-08-29T06:01:49.103Z,340
2016-08-29T06:02:47.624Z,400
2016-08-29T06:03:48.557Z,470
2016-08-29T06:04:46.770Z,530
2016-08-29T06:05:46.766Z,595
2016-08-29T06:06:46.786Z,315
2016-08-29T06:07:46.789Z,315
2016-08-29T06:08:46.808Z,305
2016-08-29T06:09:46.827Z,645
2016-08-29T06:10:46.899Z,385
2016-08-29T06:11:46.798Z,605
2016-08-29T06:12:46.811Z,655
2016-08-29T06:13:46.816Z,660
2016-08-29T06:14:46.810Z,640
2016-08-29T06:15:46.847Z,695
2016-08-29T06:16:46.829Z,725
2016-08-29T06:17:46.863Z,715
2016-08-29T06:18:46.855Z,720
2016-08-29T06:19:47.135Z,720
2016-08-29T06:20:46.845Z,740
2016-08-29T06:21:46.858Z,735
2016-08-29T06:22:46.873Z,685
2016-08-29T06:23:46.900Z,705
2016-08-29T06:24:46.882Z,720
2016-08-29T06:25:46.918Z,730
2016-08-29T06:26:46.906Z,765
2016-08-29T06:27:46.897Z,810
2016-08-29T06:28:46.926Z,840
2016-08-29T06:29:46.927Z,865
2016-08-29T06:30:47.628Z,875
2016-08-29T06:31:46.944Z,885
2016-08-29T06:32:46.960Z,860
2016-08-29T06:33:46.948Z,870
2016-08-29T06:34:46.983Z,855
2016-08-29T06:35:48.361Z,720
2016-08-29T06:36:47.020Z,500
2016-08-29T06:37:47.731Z,910
2016-08-29T06:38:47.022Z,925
2016-08-29T06:39:47.031Z,805
2016-08-29T06:40:47.056Z,840
2016-08-29T06:41:47.042Z,850
2016-08-29T06:42:47.052Z,855
2016-08-29T06:43:47.071Z,850
2016-08-29T06:44:47.078Z,860
2016-08-29T06:45:47.086Z,885
2016-08-29T06:46:47.109Z,890
2016-08-29T06:47:47.101Z,930
2016-08-29T06:48:47.126Z,955
2016-08-29T06:49:47.129Z,980
2016-08-29T06:50:47.137Z,955
2016-08-29T06:51:47.149Z,810
2016-08-29T06:52:47.173Z,530
2016-08-29T06:53:47.182Z,570
2016-08-29T06:54:47.187Z,470
2016-08-29T06:55:47.183Z,970
2016-08-29T06:56:47.204Z,520
2016-08-29T06:57:47.202Z,585
2016-08-29T06:58:47.243Z,630
2016-08-29T06:59:47.252Z,1035
2016-08-29T07:00:47.228Z,1025
2016-08-29T07:01:47.273Z,1045
2016-08-29T07:02:47.257Z,1015
2016-08-29T07:03:47.993Z,1040
2016-08-29T07:04:49.032Z,1060
2016-08-29T07:05:48.031Z,1065
2016-08-29T07:07:02.327Z,1050
2016-08-29T07:08:49.663Z,1090
2016-08-29T07:09:51.358Z,1085
2016-08-29T07:10:47.877Z,1085
2016-08-29T07:11:47.483Z,1120
2016-08-29T07:13:03.529Z,1120
2016-08-29T07:13:49.292Z,1095
2016-08-29T07:15:02.547Z,1135
2016-08-29T07:15:47.778Z,720
2016-08-29T07:18:07.422Z,1220
2016-08-29T07:18:51.008Z,1230
2016-08-29T07:19:51.023Z,1240
2016-08-29T07:20:47.715Z,1355
2016-08-29T07:21:48.337Z,1375
2016-08-29T07:22:47.503Z,1250
2016-08-29T07:23:47.546Z,260
2016-08-29T07:24:47.533Z,785
2016-08-29T07:25:47.519Z,590
2016-08-29T07:26:47.529Z,1305
2016-08-29T07:27:47.561Z,1355
2016-08-29T07:28:47.558Z,1370
2016-08-29T07:29:47.596Z,395
2016-08-29T07:30:47.586Z,1430
2016-08-29T07:31:47.603Z,305
2016-08-29T07:32:47.601Z,295
2016-08-29T07:33:47.621Z,1415
2016-08-29T07:34:47.648Z,1305
2016-08-29T07:35:47.665Z,405
2016-08-29T07:36:47.670Z,365
2016-08-29T07:37:47.665Z,335
2016-08-29T07:38:47.701Z,505
2016-08-29T07:39:47.700Z,1275
2016-08-29T07:40:47.715Z,425
2016-08-29T07:41:47.694Z,1505
2016-08-29T07:42:47.719Z,335
2016-08-29T07:43:47.742Z,380
2016-08-29T07:44:47.725Z,390
2016-08-29T07:45:47.744Z,725
2016-08-29T07:46:47.743Z,400
2016-08-29T07:47:47.760Z,410
2016-08-29T07:48:47.775Z,400
2016-08-29T07:49:47.773Z,405
2016-08-29T07:50:47.764Z,475
2016-08-29T07:51:47.785Z,415
2016-08-29T07:52:47.805Z,445
2016-08-29T07:53:47.819Z,395
2016-08-29T07:54:47.810Z,690
2016-08-29T07:55:47.824Z,465
2016-08-29T07:56:47.841Z,975
2016-08-29T07:57:47.853Z,690
2016-08-29T07:58:47.873Z,310
2016-08-29T07:59:47.858Z,390
2016-08-29T08:00:47.912Z,390
2016-08-29T08:01:47.871Z,455
2016-08-29T08:02:47.896Z,315
2016-08-29T08:03:47.889Z,265
2016-08-29T08:04:47.906Z,260
2016-08-29T08:05:47.912Z,375
2016-08-29T08:06:47.929Z,430
2016-08-29T08:07:47.903Z,585
2016-08-29T08:08:47.913Z,440
2016-08-29T08:09:47.922Z,315
2016-08-29T08:10:47.974Z,270
2016-08-29T08:11:47.964Z,330
2016-08-29T08:12:47.953Z,395
2016-08-29T08:13:47.969Z,330
2016-08-29T08:14:47.951Z,290
2016-08-29T08:15:48.003Z,295
2016-08-29T08:16:47.969Z,270
2016-08-29T08:17:47.998Z,255
2016-08-29T08:18:47.996Z,260
2016-08-29T08:19:47.980Z,255
2016-08-29T08:20:47.999Z,270
2016-08-29T08:22:49.466Z,305
2016-08-29T08:23:48.477Z,320
2016-08-29T08:25:02.934Z,305
2016-08-29T08:25:49.984Z,300
2016-08-29T08:26:50.496Z,320
2016-08-29T08:27:49.344Z,310
2016-08-29T08:28:50.395Z,290
2016-08-29T08:29:49.650Z,280
2016-08-29T08:30:48.758Z,305
2016-08-29T08:31:49.044Z,335
2016-08-29T08:32:48.848Z,370
2016-08-29T08:33:48.594Z,415
2016-08-29T08:35:50.069Z,545
2016-08-29T08:36:52.780Z,555
2016-08-29T08:37:49.867Z,535
2016-08-29T08:38:50.044Z,520
2016-08-29T08:40:03.621Z,375
2016-08-29T08:40:49.404Z,280
2016-08-29T08:41:48.127Z,220
2016-08-29T08:42:48.270Z,235
2016-08-29T08:43:48.149Z,255
2016-08-29T08:44:48.128Z,210
2016-08-29T08:45:48.130Z,180
2016-08-29T08:46:48.146Z,170
2016-08-29T08:47:48.163Z,170
2016-08-29T08:48:48.165Z,175
2016-08-29T08:49:48.133Z,195
2016-08-29T08:50:48.173Z,250
2016-08-29T08:51:48.182Z,295
2016-08-29T08:52:48.163Z,295
2016-08-29T08:53:48.152Z,310
2016-08-29T08:54:48.163Z,300
2016-08-29T08:55:48.178Z,345
2016-08-29T08:56:48.200Z,390
2016-08-29T08:57:48.193Z,400
2016-08-29T08:58:48.178Z,380
2016-08-29T08:59:48.237Z,385
2016-08-29T09:00:48.250Z,400
2016-08-29T09:01:48.205Z,405
2016-08-29T09:02:48.205Z,400
2016-08-29T09:03:48.227Z,435
2016-08-29T09:04:48.224Z,500
2016-08-29T09:05:48.221Z,465
2016-08-29T09:06:48.909Z,395
2016-08-29T09:07:48.222Z,380
2016-08-29T09:08:48.232Z,405
2016-08-29T09:09:48.236Z,465
2016-08-29T09:10:48.239Z,470
2016-08-29T09:11:48.236Z,460
2016-08-29T09:12:48.267Z,410
2016-08-29T09:13:48.259Z,315
2016-08-29T09:14:48.975Z,285
2016-08-29T09:15:48.273Z,290
2016-08-29T09:16:48.288Z,280
2016-08-29T09:17:48.283Z,295
2016-08-29T09:18:48.963Z,305
2016-08-29T09:19:48.328Z,305
2016-08-29T09:20:48.311Z,355
2016-08-29T09:21:48.309Z,410
2016-08-29T09:22:48.299Z,435
2016-08-29T09:23:48.297Z,435
2016-08-29T09:24:48.303Z,480
2016-08-29T09:25:48.315Z,635
2016-08-29T09:26:48.332Z,625
2016-08-29T09:27:48.323Z,500
2016-08-29T09:28:48.354Z,425
2016-08-29T09:29:48.349Z,405
2016-08-29T09:30:48.342Z,385
2016-08-29T09:31:48.338Z,315
2016-08-29T09:32:48.337Z,300
2016-08-29T09:33:48.341Z,395
2016-08-29T09:34:48.357Z,450
2016-08-29T09:35:49.946Z,495
2016-08-29T09:36:48.396Z,535
2016-08-29T09:37:48.376Z,570
2016-08-29T09:38:48.381Z,615
2016-08-29T09:39:50.278Z,625
2016-08-29T09:40:48.592Z,625
2016-08-29T09:41:49.339Z,620
2016-08-29T09:42:48.900Z,640
2016-08-29T09:43:49.503Z,670
2016-08-29T09:44:50.425Z,685
2016-08-29T09:45:51.345Z,665
2016-08-29T09:46:50.128Z,645
2016-08-29T09:47:49.428Z,635
2016-08-29T09:48:52.956Z,640
2016-08-29T09:49:50.143Z,655
2016-08-29T09:50:49.428Z,665
2016-08-29T09:52:48.626Z,620
2016-08-29T09:53:51.383Z,545
2016-08-29T09:54:51.083Z,500
2016-08-29T09:55:49.810Z,510
2016-08-29T09:56:49.470Z,560
2016-08-29T09:57:48.899Z,520
2016-08-29T09:58:48.501Z,520
2016-08-29T09:59:48.496Z,500
2016-08-29T10:00:48.513Z,515
2016-08-29T10:01:48.509Z,490
2016-08-29T10:02:48.528Z,390
2016-08-29T10:03:48.534Z,380
2016-08-29T10:04:48.543Z,385
2016-08-29T10:05:48.539Z,475
2016-08-29T10:06:48.533Z,475
2016-08-29T10:07:48.543Z,460
2016-08-29T10:08:48.577Z,505
2016-08-29T10:09:48.558Z,535
2016-08-29T10:10:48.598Z,520
2016-08-29T10:11:48.580Z,510
2016-08-29T10:12:48.587Z,525
2016-08-29T10:13:48.588Z,565
2016-08-29T10:14:48.586Z,570
2016-08-29T10:15:48.594Z,550
2016-08-29T10:16:48.632Z,540
2016-08-29T10:17:48.605Z,555
2016-08-29T10:18:48.650Z,580
2016-08-29T10:19:48.643Z,610
2016-08-29T10:20:48.647Z,655
2016-08-29T10:21:48.675Z,615
2016-08-29T10:22:48.665Z,600
2016-08-29T10:23:48.662Z,560
2016-08-29T10:24:48.664Z,520
2016-08-29T10:25:48.690Z,495
2016-08-29T10:26:48.697Z,465
2016-08-29T10:27:48.696Z,410
2016-08-29T10:28:48.692Z,350
2016-08-29T10:29:48.727Z,315
2016-08-29T10:30:48.705Z,325
2016-08-29T10:31:48.715Z,295
2016-08-29T10:32:48.726Z,295
2016-08-29T10:33:48.758Z,330
2016-08-29T10:34:48.742Z,365
2016-08-29T10:35:49.187Z,405
2016-08-29T10:36:48.762Z,425
2016-08-29T10:37:48.762Z,445
2016-08-29T10:38:48.766Z,455
2016-08-29T10:39:48.761Z,475
2016-08-29T10:40:49.562Z,525
2016-08-29T10:41:48.808Z,525
2016-08-29T10:42:48.791Z,500
2016-08-29T10:43:48.827Z,425
2016-08-29T10:44:48.799Z,345
2016-08-29T10:45:48.844Z,300
2016-08-29T10:46:48.818Z,295
2016-08-29T10:47:48.819Z,255
2016-08-29T10:48:48.832Z,235
2016-08-29T10:49:48.834Z,245
2016-08-29T10:50:48.846Z,320
2016-08-29T10:51:48.865Z,410
2016-08-29T10:52:48.860Z,505
2016-08-29T10:53:49.543Z,550
2016-08-29T10:54:48.875Z,585
2016-08-29T10:55:48.884Z,565
2016-08-29T10:56:48.897Z,515
2016-08-29T10:57:49.030Z,460
2016-08-29T10:58:49.556Z,415
2016-08-29T10:59:50.382Z,370
2016-08-29T11:00:49.505Z,330
2016-08-29T11:01:50.669Z,255
2016-08-29T11:02:51.534Z,180
2016-08-29T11:03:50.837Z,140
2016-08-29T11:04:52.105Z,120
2016-08-29T11:05:49.733Z,170
2016-08-29T11:06:50.253Z,195
2016-08-29T11:07:50.818Z,180
2016-08-29T11:09:18.783Z,200
2016-08-29T11:09:50.203Z,215
2016-08-29T11:10:49.233Z,215
2016-08-29T11:11:51.482Z,210
2016-08-29T11:12:50.719Z,220
2016-08-29T11:13:52.099Z,240
2016-08-29T11:14:49.972Z,250
2016-08-29T11:15:49.637Z,280
2016-08-29T11:16:49.003Z,300
2016-08-29T11:17:49.010Z,345
2016-08-29T11:18:49.005Z,375
2016-08-29T11:19:48.991Z,390
2016-08-29T11:20:49.002Z,380
2016-08-29T11:21:49.041Z,390
2016-08-29T11:22:49.055Z,425
2016-08-29T11:23:49.026Z,410
2016-08-29T11:24:49.035Z,380
2016-08-29T11:25:49.056Z,385
2016-08-29T11:26:49.056Z,435
2016-08-29T11:27:49.089Z,470
2016-08-29T11:28:49.048Z,465
2016-08-29T11:29:49.065Z,440
2016-08-29T11:30:49.077Z,370
2016-08-29T11:31:49.101Z,280
2016-08-29T11:32:49.056Z,195
2016-08-29T11:33:49.088Z,120
2016-08-29T11:34:49.790Z,85
2016-08-29T11:35:49.791Z,60
2016-08-29T11:36:49.103Z,60
2016-08-29T11:37:49.121Z,50
2016-08-29T11:38:49.112Z,40
2016-08-29T11:39:49.111Z,40
2016-08-29T11:40:49.113Z,40
2016-08-29T11:41:49.123Z,50
2016-08-29T11:42:49.146Z,60
2016-08-29T11:43:49.123Z,55
2016-08-29T11:44:49.118Z,60
2016-08-29T11:45:49.146Z,65
2016-08-29T11:46:49.138Z,80
2016-08-29T11:47:49.139Z,90
2016-08-29T11:48:49.157Z,115
2016-08-29T11:49:49.170Z,130
2016-08-29T11:50:49.164Z,155
2016-08-29T11:51:49.165Z,190
2016-08-29T11:52:49.189Z,245
2016-08-29T11:53:49.193Z,300
2016-08-29T11:54:49.160Z,325
2016-08-29T11:55:49.177Z,350
2016-08-29T11:56:49.214Z,360
2016-08-29T11:57:49.177Z,375
2016-08-29T11:58:49.203Z,385
2016-08-29T11:59:49.193Z,395
2016-08-29T12:00:49.223Z,385
2016-08-29T12:01:49.191Z,370
2016-08-29T12:02:50.894Z,330
2016-08-29T12:03:49.201Z,310
2016-08-29T12:04:49.225Z,305
2016-08-29T12:05:49.210Z,300
2016-08-29T12:06:49.262Z,260
2016-08-29T12:07:49.944Z,255
2016-08-29T12:08:49.232Z,265
2016-08-29T12:09:49.251Z,275
2016-08-29T12:10:49.929Z,255
2016-08-29T12:11:49.263Z,260
2016-08-29T12:12:49.247Z,270
2016-08-29T12:13:49.273Z,265
2016-08-29T12:14:49.259Z,275
2016-08-29T12:15:50.327Z,300
2016-08-29T12:16:50.309Z,315
2016-08-29T12:18:49.773Z,310
2016-08-29T12:21:05.304Z,305
2016-08-29T12:21:52.955Z,310
2016-08-29T12:22:50.825Z,325
2016-08-29T12:23:52.051Z,355
2016-08-29T12:25:50.723Z,430
2016-08-29T12:26:50.077Z,405
2016-08-29T12:27:49.846Z,360
2016-08-29T12:28:50.028Z,330
2016-08-29T12:30:52.142Z,340
2016-08-29T12:31:50.742Z,360
2016-08-29T12:32:52.110Z,390
2016-08-29T12:33:49.334Z,390
2016-08-29T12:34:49.336Z,375
2016-08-29T12:35:49.628Z,360
2016-08-29T12:36:49.345Z,340
2016-08-29T12:37:49.388Z,335
2016-08-29T12:38:49.386Z,320
2016-08-29T12:39:49.351Z,330
2016-08-29T12:40:49.450Z,320
2016-08-29T12:41:49.359Z,285
2016-08-29T12:42:49.374Z,275
2016-08-29T12:43:49.368Z,275
2016-08-29T12:44:49.368Z,265
2016-08-29T12:45:49.372Z,245
2016-08-29T12:46:49.365Z,230
2016-08-29T12:47:49.401Z,220
2016-08-29T12:48:49.417Z,215
2016-08-29T12:49:49.384Z,210
2016-08-29T12:50:49.398Z,205
2016-08-29T12:51:49.415Z,205
2016-08-29T12:52:49.421Z,200
2016-08-29T12:53:49.429Z,200
2016-08-29T12:54:49.431Z,200
2016-08-29T12:55:49.451Z,200
2016-08-29T12:56:49.431Z,200
2016-08-29T12:57:49.435Z,195
2016-08-29T12:58:49.443Z,195
2016-08-29T12:59:49.456Z,200
2016-08-29T13:00:49.503Z,200
2016-08-29T13:01:49.447Z,210
2016-08-29T13:02:49.449Z,195
2016-08-29T13:03:49.464Z,195
2016-08-29T13:04:49.464Z,215
2016-08-29T13:05:49.473Z,225
2016-08-29T13:06:49.486Z,250
2016-08-29T13:07:49.481Z,285
2016-08-29T13:08:49.478Z,300
2016-08-29T13:09:49.476Z,280
2016-08-29T13:10:49.483Z,265
2016-08-29T13:11:49.483Z,255
2016-08-29T13:12:50.184Z,255
2016-08-29T13:13:49.499Z,290
2016-08-29T13:14:49.502Z,290
2016-08-29T13:15:49.504Z,290
2016-08-29T13:16:49.505Z,295
2016-08-29T13:17:49.540Z,315
2016-08-29T13:18:49.512Z,315
2016-08-29T13:19:49.512Z,325
2016-08-29T13:20:49.547Z,340
2016-08-29T13:21:50.257Z,365
2016-08-29T13:22:49.552Z,380
2016-08-29T13:23:50.257Z,405
2016-08-29T13:24:49.538Z,435
2016-08-29T13:25:49.535Z,445
2016-08-29T13:26:49.582Z,440
2016-08-29T13:27:49.550Z,430
2016-08-29T13:28:49.600Z,425
2016-08-29T13:29:49.565Z,405
2016-08-29T13:30:49.593Z,410
2016-08-29T13:31:49.567Z,435
2016-08-29T13:32:49.577Z,410
2016-08-29T13:34:06.145Z,375
2016-08-29T13:34:50.198Z,360
2016-08-29T13:35:50.260Z,375
2016-08-29T13:36:50.169Z,385
2016-08-29T13:37:49.651Z,340
2016-08-29T13:38:51.257Z,270
2016-08-29T13:39:53.815Z,225
2016-08-29T13:40:52.310Z,225
2016-08-29T13:41:50.846Z,250
2016-08-29T13:43:06.473Z,240
2016-08-29T13:43:50.858Z,220
2016-08-29T13:44:50.107Z,220
2016-08-29T13:46:04.829Z,265
2016-08-29T13:46:50.559Z,290
2016-08-29T13:47:53.049Z,315
2016-08-29T13:49:52.205Z,315
2016-08-29T13:50:50.981Z,310
2016-08-29T13:51:49.733Z,315
2016-08-29T13:52:51.346Z,335
2016-08-29T13:53:50.191Z,330
2016-08-29T13:54:49.683Z,325
2016-08-29T13:55:49.689Z,300
2016-08-29T13:56:49.718Z,300
2016-08-29T13:57:49.719Z,315
2016-08-29T13:58:49.726Z,345
2016-08-29T13:59:50.412Z,375
2016-08-29T14:00:49.735Z,420
2016-08-29T14:01:49.731Z,430
2016-08-29T14:02:49.753Z,410
2016-08-29T14:03:49.761Z,375
2016-08-29T14:04:49.732Z,350
2016-08-29T14:05:49.747Z,340
2016-08-29T14:06:49.752Z,340
2016-08-29T14:07:49.783Z,345
2016-08-29T14:08:49.745Z,335
2016-08-29T14:09:49.770Z,330
2016-08-29T14:10:49.773Z,320
2016-08-29T14:11:49.775Z,310
2016-08-29T14:12:49.788Z,285
2016-08-29T14:13:49.778Z,270
2016-08-29T14:14:49.782Z,255
2016-08-29T14:15:49.783Z,250
2016-08-29T14:16:50.492Z,230
2016-08-29T14:17:49.811Z,215
2016-08-29T14:18:49.812Z,205
2016-08-29T14:19:49.799Z,205
2016-08-29T14:20:49.826Z,220
2016-08-29T14:21:49.811Z,235
2016-08-29T14:22:49.827Z,260
2016-08-29T14:23:49.829Z,275